createdAt,value
2023-05-19T00:09:14.085Z,12.20
2023-05-19T00:19:12.982Z,12.00
2023-05-19T00:29:12.721Z,11.90
2023-05-19T00:39:12.198Z,11.70
2023-05-19T00:49:11.035Z,11.50
2023-05-19T00:59:10.403Z,11.20
2023-05-19T01:09:09.079Z,11.00
2023-05-19T01:19:10.001Z,10.90
2023-05-19T01:29:09.341Z,10.70
2023-05-19T01:39:08.077Z,10.60
2023-05-19T01:49:07.107Z,10.40
2023-05-19T01:59:06.762Z,10.20
2023-05-19T02:09:06.551Z,10.10
2023-05-19T02:19:07.336Z,9.90
2023-05-19T02:29:06.269Z,9.80
2023-05-19T02:39:05.267Z,9.60
2023-05-19T02:49:04.363Z,9.50
2023-05-19T02:59:03.328Z,9.40
2023-05-19T03:09:02.310Z,9.40
2023-05-19T03:19:01.197Z,9.30
2023-05-19T03:29:01.268Z,9.20
2023-05-19T03:39:00.604Z,9.20
2023-05-19T03:49:03.874Z,9.10
2023-05-19T03:59:05.319Z,9.20
2023-05-19T04:09:04.602Z,9.50
2023-05-19T04:19:03.348Z,9.80
2023-05-19T04:29:04.566Z,10.10
2023-05-19T04:39:05.374Z,10.40
2023-05-19T04:49:04.632Z,10.70
2023-05-19T04:59:04.915Z,11.10
2023-05-19T05:09:04.341Z,11.50
2023-05-19T05:19:03.409Z,13.00
2023-05-19T05:29:03.299Z,14.50
2023-05-19T05:39:02.856Z,15.30
2023-05-19T05:49:03.343Z,16.00
2023-05-19T05:59:02.599Z,16.40
2023-05-19T06:09:02.161Z,15.70
2023-05-19T06:19:01.502Z,14.90
2023-05-19T06:29:00.807Z,14.70
2023-05-19T06:39:02.509Z,14.90
2023-05-19T06:49:02.838Z,15.30
2023-05-19T06:59:04.232Z,15.60
2023-05-19T07:09:05.470Z,15.90
2023-05-19T07:19:04.486Z,16.30
2023-05-19T07:29:03.308Z,16.50
2023-05-19T07:39:02.376Z,16.60
2023-05-19T07:49:01.282Z,17.00
2023-05-19T07:59:00.428Z,17.30
2023-05-19T08:08:59.662Z,17.60
2023-05-19T08:19:00.201Z,17.80
2023-05-19T08:28:59.310Z,18.20
2023-05-19T08:38:58.253Z,18.30
2023-05-19T08:48:57.316Z,18.80
2023-05-19T08:58:58.256Z,18.90
2023-05-19T09:08:57.378Z,19.10
2023-05-19T09:18:56.363Z,19.40
2023-05-19T09:28:55.613Z,19.70
2023-05-19T09:38:54.359Z,19.60
2023-05-19T09:48:53.317Z,20.00
2023-05-19T09:58:52.358Z,20.70
2023-05-19T10:08:51.290Z,21.10
2023-05-19T10:18:50.349Z,21.20
2023-05-19T10:28:49.396Z,21.90
2023-05-19T10:38:48.343Z,22.20
2023-05-19T10:48:47.610Z,22.20
2023-05-19T10:58:46.469Z,21.70
2023-05-19T11:08:47.465Z,21.80
2023-05-19T11:18:46.405Z,21.50
2023-05-19T11:28:45.731Z,22.20
2023-05-19T11:38:44.380Z,22.30
2023-05-19T11:48:43.745Z,21.70
2023-05-19T11:58:42.560Z,22.20
2023-05-19T12:08:41.425Z,22.70
2023-05-19T12:18:40.571Z,22.90
2023-05-19T12:28:39.385Z,23.20
2023-05-19T12:38:39.242Z,22.60
2023-05-19T12:48:38.399Z,22.50
2023-05-19T12:58:38.561Z,22.50
2023-05-19T13:08:37.398Z,22.80
2023-05-19T13:18:38.008Z,22.70
2023-05-19T13:28:37.466Z,22.80
2023-05-19T13:38:36.519Z,23.00
2023-05-19T13:48:36.064Z,23.60
2023-05-19T13:58:35.596Z,23.50
2023-05-19T14:08:34.472Z,23.30
2023-05-19T14:18:33.522Z,23.00
2023-05-19T14:28:32.559Z,23.20
2023-05-19T14:38:31.469Z,22.90
2023-05-19T14:48:30.556Z,22.60
2023-05-19T14:58:29.561Z,22.80
2023-05-19T15:08:28.541Z,22.70
2023-05-19T15:18:27.580Z,22.40
2023-05-19T15:28:26.939Z,22.60
2023-05-19T15:38:27.072Z,22.60
2023-05-19T15:48:28.518Z,22.60
2023-05-19T15:58:27.550Z,23.70
2023-05-19T16:08:26.600Z,28.10
2023-05-19T16:18:25.565Z,31.60
2023-05-19T16:28:25.004Z,34.40
2023-05-19T16:38:24.669Z,36.40
2023-05-19T16:48:23.668Z,36.30
2023-05-19T16:58:22.774Z,35.60
2023-05-19T17:08:21.630Z,28.50
2023-05-19T17:18:20.762Z,26.90
2023-05-19T17:28:20.189Z,23.50
2023-05-19T17:38:19.904Z,22.20
2023-05-19T17:48:18.808Z,21.50
2023-05-19T17:58:17.844Z,21.00
2023-05-19T18:08:16.605Z,20.70
2023-05-19T18:18:16.027Z,20.40
2023-05-19T18:28:14.872Z,20.20
2023-05-19T18:38:13.834Z,20.00
2023-05-19T18:48:13.272Z,19.70
2023-05-19T18:58:11.675Z,19.50
2023-05-19T19:08:10.669Z,19.10
2023-05-19T19:18:09.708Z,18.80
2023-05-19T19:28:08.864Z,18.60
2023-05-19T19:38:07.932Z,18.30
2023-05-19T19:48:07.034Z,18.00
2023-05-19T19:58:05.915Z,17.80
2023-05-19T20:08:04.830Z,17.50
2023-05-19T20:18:03.917Z,17.40
2023-05-19T20:28:03.027Z,17.20
2023-05-19T20:38:02.008Z,17.10
2023-05-19T20:48:02.272Z,16.90
2023-05-19T20:58:01.935Z,16.80
2023-05-19T21:08:04.085Z,16.70
2023-05-19T21:18:02.978Z,16.50
2023-05-19T21:28:01.926Z,16.40
2023-05-19T21:38:12.015Z,16.20
2023-05-19T21:48:01.957Z,16.10
2023-05-19T21:58:02.595Z,16.00
2023-05-19T22:08:01.940Z,15.90
2023-05-19T22:18:00.913Z,15.80
2023-05-19T22:28:00.759Z,15.70
2023-05-19T22:38:00.120Z,15.50
2023-05-19T22:47:58.985Z,15.40
2023-05-19T22:57:57.953Z,15.30
2023-05-19T23:07:56.762Z,15.20
2023-05-19T23:17:55.895Z,15.10
2023-05-19T23:27:54.850Z,15.00
2023-05-19T23:37:53.877Z,14.90
2023-05-19T23:47:52.826Z,14.90
2023-05-19T23:57:51.780Z,14.90
